Time;durP1;ratioP1;P1;durP2;ratioP2;P2;SDS_P1;SDS_P2;PMS_P1;PMS_P2;Temp;Humidity;BMP_temperature;BMP_pressure;BME280_temperature;BME280_humidity;BME280_pressure;Samples;Min_cycle;Max_cycle;Signal;HPM_P1;HPM_P2
2022/06/20 00:00:05;;;;;;;5.65;3.10;;;24.70;52.50;;;;;;5005996;28;20065;-72
2022/06/20 00:02:30;;;;;;;7.53;3.28;;;24.70;52.50;;;;;;5019358;28;20021;-71
2022/06/20 00:04:57;;;;;;;9.30;3.42;;;24.70;52.60;;;;;;5007301;28;20052;-71
2022/06/20 00:07:22;;;;;;;7.05;2.50;;;24.60;52.70;;;;;;4999503;28;20041;-72
2022/06/20 00:09:48;;;;;;;11.63;3.25;;;24.60;52.70;;;;;;4990826;28;20026;-71
2022/06/20 00:12:17;;;;;;;6.20;3.45;;;24.50;52.80;;;;;;5023998;28;20121;-72
2022/06/20 00:14:43;;;;;;;7.43;3.03;;;24.50;52.90;;;;;;4990958;28;20025;-71
2022/06/20 00:17:12;;;;;;;9.35;3.85;;;24.50;52.90;;;;;;4985066;28;20117;-71
2022/06/20 00:19:38;;;;;;;7.65;3.55;;;24.40;53.20;;;;;;4997665;28;20041;-71
2022/06/20 00:22:03;;;;;;;7.57;3.17;;;24.30;53.20;;;;;;5012385;28;20091;-71
2022/06/20 00:24:30;;;;;;;7.95;3.45;;;24.20;53.20;;;;;;5017212;28;20033;-71
2022/06/20 00:26:56;;;;;;;7.40;3.17;;;24.20;53.40;;;;;;5004894;28;20077;-71
2022/06/20 00:29:21;;;;;;;11.10;3.50;;;24.20;53.60;;;;;;4997160;28;20032;-71
2022/06/20 00:31:47;;;;;;;6.35;3.38;;;24.10;53.80;;;;;;5010313;28;20018;-71
2022/06/20 00:34:13;;;;;;;7.07;3.42;;;24.10;53.90;;;;;;5022125;28;20071;-71
2022/06/20 00:36:39;;;;;;;6.90;2.92;;;24.00;54.00;;;;;;4998193;28;20026;-72
2022/06/20 00:39:04;;;;;;;7.65;3.17;;;23.90;54.10;;;;;;5013854;28;20602;-71
2022/06/20 00:41:30;;;;;;;6.65;3.15;;;23.90;54.20;;;;;;5019035;28;20030;-71
2022/06/20 00:43:56;;;;;;;7.45;3.25;;;23.80;54.30;;;;;;4980856;28;20577;-71
2022/06/20 00:46:42;;;;;;;5.07;2.88;;;23.80;54.60;;;;;;5003463;28;20087;-71
2022/06/20 00:49:10;;;;;;;6.93;3.35;;;23.80;54.70;;;;;;5001355;28;20021;-71
2022/06/20 00:51:52;;;;;;;7.10;3.58;;;23.70;54.60;;;;;;5007045;28;20028;-71
2022/06/20 00:54:24;;;;;;;6.47;3.13;;;23.70;54.90;;;;;;5029769;28;20684;-71
2022/06/20 00:56:53;;;;;;;7.07;3.30;;;23.80;54.80;;;;;;5006243;28;20518;-71
2022/06/20 00:59:35;;;;;;;7.18;3.35;;;23.70;54.70;;;;;;5000980;28;20538;-71
2022/06/20 01:02:01;;;;;;;;;;;23.70;54.90;;;;;;5030011;28;20690;-71
2022/06/20 01:04:40;;;;;;;4.45;3.08;;;23.70;54.60;;;;;;5022913;28;19956;-71
2022/06/20 01:07:09;;;;;;;11.18;3.45;;;23.70;54.70;;;;;;4991853;28;20038;-71
2022/06/20 01:09:36;;;;;;;6.93;2.97;;;23.70;54.80;;;;;;5005154;28;20025;-71
2022/06/20 01:12:02;;;;;;;7.88;2.83;;;23.70;54.70;;;;;;5002456;28;20042;-71
2022/06/20 01:14:28;;;;;;;8.00;3.42;;;23.60;54.80;;;;;;5000339;28;20029;-71
2022/06/20 01:16:57;;;;;;;5.45;2.90;;;23.60;54.80;;;;;;5017023;28;20117;-71
2022/06/20 01:19:32;;;;;;;10.23;3.65;;;23.60;55.40;;;;;;5013907;28;20426;-71
2022/06/20 01:21:59;;;;;;;5.97;3.00;;;23.50;55.10;;;;;;5031314;28;20161;-71
2022/06/20 01:24:30;;;;;;;5.68;3.33;;;23.60;55.10;;;;;;5014409;28;20029;-71
2022/06/20 01:27:14;;;;;;;7.25;3.20;;;23.50;55.20;;;;;;4996195;28;20104;-71
2022/06/20 01:29:39;;;;;;;6.22;3.55;;;23.50;55.60;;;;;;5025893;28;20076;-71
2022/06/20 01:32:05;;;;;;;8.00;4.00;;;23.40;55.50;;;;;;5028912;28;20037;-71
2022/06/20 01:34:31;;;;;;;7.88;3.50;;;23.40;55.50;;;;;;5011847;28;20056;-71
2022/06/20 01:37:23;;;;;;;9.73;3.60;;;23.30;56.30;;;;;;5005098;28;20030;-71
2022/06/20 01:39:48;;;;;;;8.57;3.03;;;23.30;55.90;;;;;;4996602;28;20501;-71
2022/06/20 01:42:19;;;;;;;9.43;3.45;;;23.20;56.00;;;;;;5020817;28;20042;-71
2022/06/20 01:44:49;;;;;;;8.25;3.53;;;23.10;56.10;;;;;;4984005;28;20160;-71
2022/06/20 01:47:15;;;;;;;9.32;3.75;;;23.10;56.50;;;;;;5021223;28;20029;-71
2022/06/20 01:49:41;;;;;;;6.03;2.78;;;23.00;56.40;;;;;;5003243;28;20033;-71
2022/06/20 01:52:29;;;;;;;6.93;3.30;;;22.90;56.40;;;;;;4985655;28;20045;-71
2022/06/20 01:54:59;;;;;;;8.80;3.03;;;22.90;57.20;;;;;;4991373;28;20036;-71
2022/06/20 01:57:24;;;;;;;8.45;3.13;;;22.90;56.80;;;;;;5004712;28;20030;-71
2022/06/20 01:59:59;;;;;;;8.63;3.60;;;22.80;56.80;;;;;;5012363;28;20037;-71
2022/06/20 02:02:25;;;;;;;6.80;2.92;;;22.80;57.30;;;;;;5017279;28;20556;-72
2022/06/20 02:04:51;;;;;;;9.23;3.45;;;22.80;57.00;;;;;;4994580;28;20037;-72
2022/06/20 02:07:16;;;;;;;7.10;3.22;;;22.70;57.20;;;;;;4989577;28;20026;-72
2022/06/20 02:09:42;;;;;;;6.60;3.15;;;22.70;57.20;;;;;;5012276;28;20099;-72
2022/06/20 02:12:08;;;;;;;5.85;3.10;;;22.70;57.20;;;;;;5014303;28;20037;-71
2022/06/20 02:14:39;;;;;;;8.15;3.20;;;22.70;57.20;;;;;;5005114;28;20048;-71
2022/06/20 02:17:09;;;;;;;5.40;2.95;;;22.60;57.50;;;;;;4975697;28;20091;-71
2022/06/20 02:19:38;;;;;;;8.70;3.67;;;22.60;57.60;;;;;;4991047;28;20072;-71
2022/06/20 02:22:06;;;;;;;4.82;3.35;;;22.60;57.60;;;;;;5011306;28;20033;-71
2022/06/20 02:24:34;;;;;;;5.93;3.78;;;22.50;57.60;;;;;;5014331;28;20553;-72
2022/06/20 02:27:02;;;;;;;7.88;3.47;;;22.50;57.60;;;;;;4998460;28;20055;-71
2022/06/20 02:29:28;;;;;;;7.68;3.85;;;22.50;57.50;;;;;;4990019;28;20076;-71
2022/06/20 02:32:12;;;;;;;6.95;2.95;;;22.50;57.50;;;;;;5011085;28;20077;-71
2022/06/20 02:34:37;;;;;;;5.70;3.28;;;22.50;57.70;;;;;;5014641;28;20061;-71
2022/06/20 02:37:09;;;;;;;7.50;3.55;;;22.50;57.50;;;;;;4995446;28;20061;-71
2022/06/20 02:39:36;;;;;;;7.72;3.20;;;22.60;57.80;;;;;;5006162;28;20034;-71
2022/06/20 02:42:03;;;;;;;9.02;3.47;;;22.50;57.70;;;;;;5004883;28;20033;-71
2022/06/20 02:44:29;;;;;;;7.00;3.15;;;22.50;57.80;;;;;;5014287;28;20030;-71
2022/06/20 02:46:54;;;;;;;3.88;2.88;;;22.50;58.00;;;;;;5015132;28;20042;-70
2022/06/20 02:49:25;;;;;;;6.85;3.20;;;22.50;58.10;;;;;;5009835;28;20053;-71
2022/06/20 02:51:51;;;;;;;6.60;3.30;;;22.40;58.20;;;;;;5000782;28;20129;-71
2022/06/20 02:54:19;;;;;;;8.95;3.53;;;22.40;58.00;;;;;;5004975;28;20030;-71
2022/06/20 02:56:49;;;;;;;8.75;3.47;;;22.50;58.40;;;;;;4995537;28;20033;-71
2022/06/20 02:59:20;;;;;;;10.23;3.40;;;22.40;58.40;;;;;;4995778;28;20124;-71
2022/06/20 03:01:52;;;;;;;9.07;3.65;;;22.30;58.40;;;;;;5003357;28;20022;-71
2022/06/20 03:04:18;;;;;;;7.65;3.35;;;22.30;58.70;;;;;;4997537;28;20103;-71
2022/06/20 03:06:53;;;;;;;6.60;3.20;;;22.20;58.60;;;;;;5014155;28;20048;-71
2022/06/20 03:09:23;;;;;;;9.48;3.28;;;22.20;58.80;;;;;;5030280;28;20057;-71
2022/06/20 03:11:48;;;;;;;6.35;2.90;;;22.20;58.70;;;;;;4999976;28;20087;-71
2022/06/20 03:14:15;;;;;;;9.25;3.45;;;22.20;58.70;;;;;;4975148;28;20033;-71
2022/06/20 03:16:41;;;;;;;3.63;2.85;;;22.10;58.60;;;;;;5028933;28;20033;-71
2022/06/20 03:19:11;;;;;;;10.00;2.97;;;22.10;58.60;;;;;;5002558;28;20030;-71
2022/06/20 03:21:37;;;;;;;6.43;2.97;;;22.10;58.50;;;;;;4978441;28;20052;-71
2022/06/20 03:24:03;;;;;;;5.78;2.78;;;22.10;58.50;;;;;;4991910;28;20062;-71
2022/06/20 03:26:29;;;;;;;9.70;3.28;;;22.10;58.60;;;;;;5008376;28;20017;-71
2022/06/20 03:28:54;;;;;;;5.47;2.83;;;22.10;58.50;;;;;;4996783;28;20040;-71
2022/06/20 03:31:20;;;;;;;6.20;2.47;;;22.10;58.40;;;;;;5011386;28;20029;-70
2022/06/20 03:33:46;;;;;;;3.63;2.55;;;22.00;58.30;;;;;;5018382;28;20536;-71
2022/06/20 03:36:23;;;;;;;5.50;2.42;;;22.00;58.20;;;;;;5014680;28;20036;-71
2022/06/20 03:38:49;;;;;;;4.55;2.08;;;21.90;58.20;;;;;;5001854;28;20041;-71
2022/06/20 03:41:17;;;;;;;7.30;2.35;;;21.90;58.10;;;;;;5008775;28;20063;-71
2022/06/20 03:43:47;;;;;;;3.90;2.22;;;21.90;58.00;;;;;;4999649;28;20113;-71
2022/06/20 03:46:26;;;;;;;3.63;1.80;;;21.80;57.90;;;;;;5017778;28;20037;-71
2022/06/20 03:49:20;;;;;;;4.93;2.05;;;21.80;57.80;;;;;;4992042;28;20036;-72
2022/06/20 03:51:47;;;;;;;5.43;1.90;;;21.80;57.70;;;;;;4992609;28;20117;-71
2022/06/20 03:54:19;;;;;;;8.27;2.47;;;21.80;57.50;;;;;;5011531;28;20091;-71
2022/06/20 03:56:51;;;;;;;5.47;1.83;;;21.80;57.40;;;;;;5000973;28;20707;-70
2022/06/20 03:59:25;;;;;;;4.45;1.80;;;21.70;57.30;;;;;;4987221;28;20032;-71
2022/06/20 04:01:57;;;;;;;3.38;1.65;;;21.60;57.30;;;;;;4981173;28;20034;-71
2022/06/20 04:04:28;;;;;;;4.18;1.75;;;21.60;57.30;;;;;;4949929;28;1081140;-71
2022/06/20 04:07:03;;;;;;;6.97;2.00;;;21.50;57.30;;;;;;4992933;28;20088;-71
2022/06/20 04:12:32;;;;;;;8.80;1.70;;;21.50;57.20;;;;;;5015136;28;20586;-71
2022/06/20 04:15:00;;;;;;;5.18;1.77;;;21.40;57.10;;;;;;4999977;28;20026;-71
2022/06/20 04:20:46;;;;;;;5.75;1.95;;;21.20;56.90;;;;;;4988270;28;20473;-70
2022/06/20 04:23:25;;;;;;;5.47;2.03;;;21.10;57.10;;;;;;4964697;28;20123;-71
2022/06/20 04:25:57;;;;;;;3.95;1.50;;;21.10;57.20;;;;;;4989420;28;20038;-71
2022/06/20 04:28:50;;;;;;;6.53;1.80;;;21.10;57.20;;;;;;4997938;28;20040;-71
2022/06/20 04:31:28;;;;;;;5.82;1.75;;;21.10;57.20;;;;;;4992899;28;20049;-70
2022/06/20 04:34:32;;;;;;;7.20;1.95;;;21.10;57.10;;;;;;5002164;28;20092;-70
2022/06/20 04:37:17;;;;;;;3.92;1.73;;;21.10;57.10;;;;;;4996392;28;20686;-70
2022/06/20 04:39:54;;;;;;;3.80;1.48;;;21.10;56.90;;;;;;5012456;28;20034;-70
2022/06/20 04:42:41;;;;;;;8.23;2.55;;;21.10;56.90;;;;;;5013138;28;20053;-70
2022/06/20 04:45:20;;;;;;;10.05;1.98;;;21.10;56.90;;;;;;5016281;28;20041;-70
2022/06/20 04:47:53;;;;;;;4.53;1.90;;;21.10;56.80;;;;;;4995604;28;20048;-70
2022/06/20 04:50:20;;;;;;;5.93;1.95;;;21.10;56.90;;;;;;4999124;28;20557;-70
2022/06/20 04:52:46;;;;;;;3.72;1.50;;;21.10;56.80;;;;;;4991985;28;24880;-70
2022/06/20 04:55:16;;;;;;;6.97;1.70;;;21.10;56.80;;;;;;5012681;28;20105;-70
2022/06/20 04:57:42;;;;;;;5.65;2.00;;;21.10;56.80;;;;;;5006404;28;20033;-70
2022/06/20 05:00:09;;;;;;;6.00;1.80;;;21.10;56.80;;;;;;5015668;28;20022;-71
2022/06/20 05:02:35;;;;;;;5.88;2.15;;;21.10;56.80;;;;;;5012001;28;20042;-70
2022/06/20 05:05:04;;;;;;;3.13;1.80;;;21.10;56.90;;;;;;5001365;28;20160;-68
2022/06/20 05:07:33;;;;;;;2.63;1.40;;;21.10;56.90;;;;;;4998594;28;20025;-68
2022/06/20 05:10:24;;;;;;;4.80;1.95;;;21.20;56.90;;;;;;5004555;28;20038;-70
2022/06/20 05:13:04;;;;;;;5.23;1.87;;;21.30;57.00;;;;;;5006445;28;20186;-68
2022/06/20 05:15:46;;;;;;;6.15;1.52;;;21.20;56.70;;;;;;4998172;28;20048;-69
2022/06/20 05:18:30;;;;;;;4.30;1.50;;;21.20;56.80;;;;;;5003652;28;20694;-69
2022/06/20 05:20:59;;;;;;;5.55;1.60;;;21.20;56.80;;;;;;4985666;28;20120;-70
2022/06/20 05:23:25;;;;;;;4.35;1.80;;;21.20;57.10;;;;;;4980338;28;20241;-68
2022/06/20 05:25:50;;;;;;;4.47;1.88;;;21.30;56.70;;;;;;5004470;28;20723;-68
2022/06/20 05:28:21;;;;;;;6.15;1.85;;;21.30;56.70;;;;;;4984367;28;20117;-68
2022/06/20 05:30:46;;;;;;;5.78;1.77;;;21.30;56.70;;;;;;4999224;28;20037;-68
2022/06/20 05:33:20;;;;;;;5.25;2.03;;;21.40;56.60;;;;;;5025364;28;20080;-69
2022/06/20 05:35:54;;;;;;;4.18;2.00;;;21.40;56.60;;;;;;4996451;28;20114;-69
2022/06/20 05:38:46;;;;;;;9.25;1.90;;;21.40;56.60;;;;;;5030328;28;20042;-69
2022/06/20 05:41:15;;;;;;;3.97;1.67;;;21.50;56.90;;;;;;4989110;28;20048;-69
2022/06/20 05:43:41;;;;;;;5.78;2.13;;;21.50;56.50;;;;;;5015486;28;20042;-69
2022/06/20 05:46:07;;;;;;;5.97;2.00;;;21.60;56.40;;;;;;5018799;28;20041;-69
2022/06/20 05:48:39;;;;;;;3.70;1.95;;;21.70;56.40;;;;;;4987995;28;20087;-69
2022/06/20 05:51:07;;;;;;;8.70;1.98;;;21.70;56.20;;;;;;4996873;28;20173;-69
2022/06/20 05:53:47;;;;;;;3.95;1.80;;;21.70;56.10;;;;;;4999784;28;20029;-70
2022/06/20 05:56:16;;;;;;;7.15;2.35;;;21.70;56.10;;;;;;5004273;28;20114;-70
2022/06/20 05:58:42;;;;;;;7.03;1.98;;;21.80;56.00;;;;;;4992466;28;20817;-69
2022/06/20 06:01:14;;;;;;;5.43;2.03;;;21.80;56.00;;;;;;5014233;28;20034;-69
2022/06/20 06:04:04;;;;;;;8.10;2.63;;;21.80;55.90;;;;;;4992246;28;20085;-71
2022/06/20 06:06:39;;;;;;;12.10;2.17;;;21.80;56.00;;;;;;5008189;28;20073;-70
2022/06/20 06:09:19;;;;;;;23.17;2.25;;;21.80;55.90;;;;;;5005619;28;20041;-70
2022/06/20 06:11:54;;;;;;;18.83;2.10;;;21.90;56.10;;;;;;4968616;28;20030;-70
2022/06/20 06:14:36;;;;;;;15.35;2.75;;;21.90;56.00;;;;;;5030579;28;20042;-70
2022/06/20 06:17:19;;;;;;;20.92;2.97;;;22.00;56.10;;;;;;4997799;28;20117;-71
2022/06/20 06:19:57;;;;;;;12.68;2.38;;;22.00;56.00;;;;;;4999267;28;20120;-71
2022/06/20 06:22:29;;;;;;;11.85;2.38;;;22.10;56.60;;;;;;4999349;28;20041;-71
2022/06/20 06:24:56;;;;;;;19.85;2.28;;;22.20;55.80;;;;;;5008817;28;20502;-73
2022/06/20 06:27:26;;;;;;;9.40;2.45;;;22.10;55.70;;;;;;5002989;28;20033;-72
2022/06/20 06:29:52;;;;;;;12.77;2.55;;;22.10;55.70;;;;;;4980644;28;20060;-72
2022/06/20 06:32:29;;;;;;;6.72;2.00;;;22.20;55.90;;;;;;5016136;28;20056;-72
2022/06/20 06:35:06;;;;;;;17.48;2.45;;;22.10;55.90;;;;;;5004245;28;20089;-75
2022/06/20 06:37:44;;;;;;;22.70;3.08;;;22.20;56.10;;;;;;5000966;28;20052;-74
2022/06/20 06:40:18;;;;;;;12.63;2.88;;;22.30;56.00;;;;;;5010972;28;20057;-74
2022/06/20 06:42:43;;;;;;;5.53;2.10;;;22.40;55.90;;;;;;4972233;28;20073;-73
2022/06/20 06:45:15;;;;;;;8.27;2.40;;;22.50;55.70;;;;;;5020791;28;20044;-72
2022/06/20 06:47:45;;;;;;;9.63;2.50;;;22.50;55.50;;;;;;5011929;28;20043;-72
2022/06/20 06:50:17;;;;;;;11.13;2.20;;;22.60;55.60;;;;;;5032579;28;20034;-72
2022/06/20 06:52:50;;;;;;;10.98;2.67;;;22.60;55.50;;;;;;5016561;28;20042;-72
2022/06/20 06:55:33;;;;;;;5.05;2.30;;;22.60;55.50;;;;;;5034199;28;20038;-72
2022/06/20 06:58:11;;;;;;;6.15;1.73;;;22.70;55.50;;;;;;5027896;28;20038;-73
2022/06/20 07:00:38;;;;;;;5.95;2.25;;;22.80;55.40;;;;;;5023989;28;20038;-73
2022/06/20 07:03:18;;;;;;;10.38;1.88;;;22.70;55.10;;;;;;5035587;28;20121;-74
2022/06/20 07:05:57;;;;;;;8.20;2.20;;;22.80;55.20;;;;;;5013364;28;20049;-71
2022/06/20 07:08:24;;;;;;;8.55;2.00;;;22.80;55.30;;;;;;4993495;28;20511;-72
2022/06/20 07:11:09;;;;;;;9.27;2.08;;;22.80;55.10;;;;;;5002343;28;20033;-71
2022/06/20 07:13:44;;;;;;;6.55;1.90;;;22.80;55.10;;;;;;4989482;28;20041;-71
2022/06/20 07:16:18;;;;;;;10.63;2.22;;;22.80;55.10;;;;;;5006917;28;20065;-71
2022/06/20 07:18:46;;;;;;;10.88;2.70;;;22.80;55.20;;;;;;5011956;28;20033;-73
2022/06/20 07:21:15;;;;;;;9.57;2.03;;;22.80;55.10;;;;;;4989089;28;20565;-73
2022/06/20 07:23:42;;;;;;;6.70;2.22;;;22.80;55.20;;;;;;4988887;28;20491;-72
2022/06/20 07:26:07;;;;;;;9.73;1.80;;;22.90;55.10;;;;;;5010022;28;20041;-72
2022/06/20 07:29:01;;;;;;;6.20;2.05;;;22.90;55.10;;;;;;5013835;28;20026;-73
2022/06/20 07:31:40;;;;;;;10.00;2.58;;;22.90;55.10;;;;;;4987845;28;20064;-73
2022/06/20 07:34:11;;;;;;;8.98;2.38;;;23.00;55.10;;;;;;5032758;28;20115;-73
2022/06/20 07:36:40;;;;;;;11.43;2.38;;;23.10;54.90;;;;;;5037659;28;20030;-73
2022/06/20 07:39:22;;;;;;;4.13;1.92;;;23.20;54.80;;;;;;4989574;28;20112;-73
2022/06/20 07:42:15;;;;;;;6.95;1.92;;;23.30;55.10;;;;;;5019807;28;20173;-73
2022/06/20 07:44:42;;;;;;;10.93;2.00;;;23.50;54.80;;;;;;5007931;28;20396;-73
2022/06/20 07:47:26;;;;;;;4.05;1.92;;;23.50;54.40;;;;;;4993405;28;20519;-73
2022/06/20 07:49:55;;;;;;;15.07;2.10;;;23.70;54.40;;;;;;5002337;28;20044;-73
2022/06/20 07:52:24;;;;;;;5.28;2.40;;;23.90;54.20;;;;;;5024650;28;20033;-73
2022/06/20 07:54:51;;;;;;;10.02;2.65;;;24.00;54.00;;;;;;5015966;28;20026;-72
2022/06/20 07:57:21;;;;;;;5.53;1.90;;;24.00;53.90;;;;;;5022133;28;20092;-72
2022/06/20 08:00:12;;;;;;;11.73;2.10;;;24.20;53.80;;;;;;4987911;28;20030;-73
2022/06/20 08:03:04;;;;;;;6.10;2.10;;;24.30;53.70;;;;;;5017667;28;20041;-73
2022/06/20 08:05:37;;;;;;;6.80;2.20;;;24.50;53.40;;;;;;5022784;28;20034;-74
2022/06/20 08:08:19;;;;;;;13.98;2.13;;;24.50;53.30;;;;;;4999864;28;20041;-73
2022/06/20 08:10:48;;;;;;;7.57;2.00;;;24.60;53.20;;;;;;5007419;28;20041;-72
2022/06/20 08:13:22;;;;;;;7.13;2.10;;;24.70;53.00;;;;;;5036440;28;20100;-74
2022/06/20 08:15:53;;;;;;;7.30;2.20;;;24.70;52.90;;;;;;4999853;28;20100;-73
2022/06/20 08:18:20;;;;;;;7.18;2.30;;;24.90;52.80;;;;;;5004488;28;20030;-73
2022/06/20 08:20:48;;;;;;;4.63;1.88;;;25.00;52.60;;;;;;4993399;28;20569;-73
2022/06/20 08:23:18;;;;;;;6.80;1.58;;;25.20;52.50;;;;;;5017034;28;20037;-73
2022/06/20 08:25:52;;;;;;;4.28;1.95;;;25.40;52.40;;;;;;4988311;28;20053;-73
2022/06/20 08:28:22;;;;;;;4.65;2.20;;;25.60;52.20;;;;;;5020289;28;20822;-74
2022/06/20 08:30:48;;;;;;;5.85;1.70;;;25.80;51.90;;;;;;4983882;28;20549;-73
2022/06/20 08:33:16;;;;;;;4.57;2.25;;;26.00;51.60;;;;;;5028086;28;20068;-73
2022/06/20 08:35:45;;;;;;;6.93;1.83;;;26.20;51.40;;;;;;5039346;28;20043;-73
2022/06/20 08:38:23;;;;;;;7.03;2.17;;;26.40;51.10;;;;;;5008493;28;20502;-73
2022/06/20 08:41:15;;;;;;;7.10;1.80;;;26.50;50.90;;;;;;5021237;28;20030;-73
2022/06/20 08:44:07;;;;;;;4.20;1.25;;;26.70;50.70;;;;;;4991505;28;20056;-73
2022/06/20 08:46:32;;;;;;;4.70;1.30;;;26.90;50.30;;;;;;5010433;28;20048;-74
2022/06/20 08:49:17;;;;;;;5.25;1.20;;;27.00;50.20;;;;;;5022177;28;20033;-74
2022/06/20 08:52:06;;;;;;;4.93;1.77;;;27.10;49.60;;;;;;5022488;28;20042;-73
2022/06/20 08:54:51;;;;;;;3.15;1.38;;;27.20;49.40;;;;;;5001189;28;20029;-74
2022/06/20 08:57:27;;;;;;;6.05;1.52;;;27.30;49.50;;;;;;5020838;28;20528;-73
2022/06/20 09:00:09;;;;;;;6.88;1.90;;;27.40;49.30;;;;;;5025496;28;20072;-74
2022/06/20 09:03:05;;;;;;;5.80;1.65;;;27.50;48.90;;;;;;5020712;28;20125;-73
2022/06/20 09:06:04;;;;;;;3.53;1.80;;;27.60;48.70;;;;;;5001299;28;20041;-74
2022/06/20 09:08:56;;;;;;;10.55;2.55;;;27.60;48.60;;;;;;5017805;28;20041;-74
2022/06/20 09:11:31;;;;;;;6.88;2.10;;;27.70;48.40;;;;;;5035122;28;20049;-74
2022/06/20 09:14:14;;;;;;;7.82;1.60;;;27.90;48.50;;;;;;4995041;28;20537;-72
2022/06/20 09:17:07;;;;;;;7.43;1.90;;;28.10;48.20;;;;;;4999377;28;20048;-72
2022/06/20 09:20:03;;;;;;;3.70;1.55;;;28.10;47.90;;;;;;4995804;28;20059;-72
2022/06/20 09:22:43;;;;;;;5.65;1.60;;;28.20;47.50;;;;;;5013769;28;20122;-71
2022/06/20 09:25:26;;;;;;;4.82;1.50;;;28.20;47.50;;;;;;4990221;28;20502;-72
2022/06/20 09:28:08;;;;;;;6.50;1.60;;;28.10;47.40;;;;;;5000533;28;20599;-71
2022/06/20 09:30:41;;;;;;;5.15;1.40;;;28.00;47.30;;;;;;4989854;28;20120;-72
2022/06/20 09:33:29;;;;;;;3.90;1.77;;;28.10;47.40;;;;;;4988117;28;20088;-71
2022/06/20 09:36:33;;;;;;;6.47;1.42;;;28.20;47.40;;;;;;5010674;28;20119;-72
2022/06/20 09:39:29;;;;;;;3.22;1.60;;;28.40;47.20;;;;;;5020665;28;20120;-72
2022/06/20 09:42:06;;;;;;;2.85;1.70;;;28.80;46.90;;;;;;5015021;28;20215;-72
2022/06/20 09:44:46;;;;;;;5.68;1.67;;;29.00;46.70;;;;;;4987172;28;20033;-72
2022/06/20 09:47:24;;;;;;;6.28;1.85;;;29.20;46.40;;;;;;5000265;28;20136;-72
2022/06/20 09:50:15;;;;;;;8.60;2.17;;;29.30;46.20;;;;;;4968714;28;20037;-73
2022/06/20 09:53:11;;;;;;;6.47;1.65;;;29.20;45.90;;;;;;5014239;28;20047;-72
2022/06/20 09:55:40;;;;;;;5.80;1.50;;;29.20;46.00;;;;;;4996054;28;20041;-72
2022/06/20 09:58:17;;;;;;;11.95;1.90;;;29.10;46.20;;;;;;5030769;28;20063;-72
2022/06/20 10:01:13;;;;;;;12.00;1.80;;;29.00;46.00;;;;;;5014465;28;20025;-72
2022/06/20 10:03:44;;;;;;;14.85;2.95;;;28.90;46.00;;;;;;5006407;28;20056;-71
2022/06/20 10:06:11;;;;;;;;;;;28.60;46.20;;;;;;5001335;28;20050;-72
2022/06/20 10:09:18;;;;;;;15.23;2.75;;;28.30;46.50;;;;;;4973490;28;19929;-72
2022/06/20 10:11:54;;;;;;;8.35;2.28;;;28.20;47.00;;;;;;5000920;28;20200;-72
2022/06/20 10:14:44;;;;;;;10.23;1.80;;;28.20;46.90;;;;;;4988258;28;20032;-71
2022/06/20 10:17:25;;;;;;;13.75;1.55;;;28.00;46.90;;;;;;5009191;28;20696;-71
2022/06/20 10:20:03;;;;;;;10.10;1.58;;;27.70;47.20;;;;;;5033757;28;20055;-72
2022/06/20 10:22:48;;;;;;;8.18;1.85;;;27.40;47.50;;;;;;5021157;28;20116;-72
2022/06/20 10:25:15;;;;;;;20.08;2.17;;;27.10;47.60;;;;;;5022813;28;20033;-72
2022/06/20 10:27:52;;;;;;;20.52;2.17;;;27.00;47.90;;;;;;5019448;28;20037;-71
2022/06/20 10:30:19;;;;;;;16.70;2.60;;;26.90;48.00;;;;;;4993071;28;20061;-71
2022/06/20 10:33:20;;;;;;;14.02;2.20;;;26.80;48.10;;;;;;4989533;28;20124;-71
2022/06/20 10:36:11;;;;;;;11.48;1.88;;;26.60;48.20;;;;;;5018910;28;20037;-72
2022/06/20 10:38:39;;;;;;;12.90;1.90;;;26.50;48.60;;;;;;5018287;28;21704;-73
2022/06/20 10:41:11;;;;;;;7.07;2.13;;;26.40;48.50;;;;;;5019467;28;20033;-74
2022/06/20 10:44:11;;;;;;;8.45;2.10;;;26.40;48.60;;;;;;5023954;28;20049;-73
2022/06/20 10:46:36;;;;;;;8.93;1.75;;;26.30;48.70;;;;;;5023030;28;20037;-73
2022/06/20 10:49:33;;;;;;;8.25;2.25;;;26.30;48.70;;;;;;5024094;28;20033;-73
2022/06/20 10:52:24;;;;;;;5.25;1.60;;;26.30;48.90;;;;;;5023037;28;20068;-71
2022/06/20 10:55:13;;;;;;;7.60;1.65;;;26.30;49.00;;;;;;4981056;28;20033;-72
2022/06/20 10:57:49;;;;;;;5.00;1.75;;;26.30;49.00;;;;;;5007447;28;20052;-74
2022/06/20 11:00:16;;;;;;;4.78;1.42;;;26.30;48.90;;;;;;5003656;28;20278;-73
2022/06/20 11:03:19;;;;;;;5.93;1.50;;;26.20;48.90;;;;;;4991136;28;20049;-72
2022/06/20 11:06:24;;;;;;;7.22;1.20;;;26.10;49.20;;;;;;5020852;28;20199;-73
2022/06/20 11:09:29;;;;;;;9.93;2.35;;;26.10;49.10;;;;;;4969356;28;20070;-72
2022/06/20 11:12:14;;;;;;;9.63;2.47;;;26.00;49.20;;;;;;4992814;28;20038;-72
2022/06/20 11:14:47;;;;;;;7.53;1.77;;;25.80;49.20;;;;;;5002027;28;20040;-72
2022/06/20 11:17:24;;;;;;;4.25;1.30;;;25.70;49.50;;;;;;4987321;28;20033;-72
2022/06/20 11:20:19;;;;;;;9.30;2.13;;;25.70;49.70;;;;;;5007582;28;20021;-72
2022/06/20 11:22:51;;;;;;;5.82;1.33;;;25.60;49.80;;;;;;5001928;28;20069;-73
2022/06/20 11:25:55;;;;;;;5.28;1.75;;;25.50;49.90;;;;;;4990258;28;20088;-73
2022/06/20 11:28:28;;;;;;;8.90;1.73;;;25.40;50.00;;;;;;4952587;28;20085;-72
2022/06/20 11:31:05;;;;;;;7.80;1.40;;;25.40;50.10;;;;;;4949031;28;20547;-73
2022/06/20 11:34:09;;;;;;;5.47;1.48;;;25.30;50.40;;;;;;4939914;28;20062;-73
2022/06/20 11:36:57;;;;;;;8.77;1.13;;;25.20;50.50;;;;;;4957929;28;20126;-72
2022/06/20 11:39:44;;;;;;;6.10;1.15;;;25.10;50.60;;;;;;4927658;28;20595;-72
2022/06/20 11:42:09;;;;;;;7.05;2.05;;;25.10;50.80;;;;;;4954975;28;20182;-72
2022/06/20 11:44:40;;;;;;;10.43;1.50;;;25.10;50.80;;;;;;4941599;28;20500;-73
2022/06/20 11:47:35;;;;;;;4.47;1.13;;;25.00;50.80;;;;;;4930129;28;20534;-73
2022/06/20 11:50:28;;;;;;;5.25;1.08;;;25.00;51.10;;;;;;4927505;28;20066;-72
2022/06/20 11:52:58;;;;;;;14.85;1.50;;;25.00;51.20;;;;;;4920992;28;20027;-72
2022/06/20 11:55:38;;;;;;;3.33;1.00;;;25.00;50.90;;;;;;4933678;28;20031;-72
2022/06/20 11:58:27;;;;;;;3.67;0.95;;;25.00;51.10;;;;;;4944761;28;20035;-72
2022/06/20 12:01:13;;;;;;;3.67;1.50;;;24.90;51.10;;;;;;4943514;28;20031;-72
2022/06/20 12:03:42;;;;;;;2.55;0.70;;;24.90;51.00;;;;;;5002796;28;20037;-73
2022/06/20 12:06:13;;;;;;;2.53;0.90;;;24.80;51.00;;;;;;5013641;28;20045;-73
2022/06/20 12:09:03;;;;;;;3.42;0.50;;;24.50;51.30;;;;;;5009334;28;20029;-72
2022/06/20 12:11:35;;;;;;;0.75;0.60;;;24.30;51.60;;;;;;5020864;28;20033;-73
2022/06/20 12:14:19;;;;;;;3.35;0.63;;;24.10;51.90;;;;;;5007155;28;20033;-72
2022/06/20 12:17:03;;;;;;;2.05;0.40;;;23.90;52.40;;;;;;5000396;28;20120;-72
2022/06/20 12:25:22;;;;;;;0.70;0.52;;;23.90;52.20;;;;;;4996091;28;20118;-73
2022/06/20 12:27:47;;;;;;;0.88;0.28;;;23.90;52.10;;;;;;5028571;28;20030;-71
2022/06/20 12:30:14;;;;;;;0.68;0.35;;;23.90;52.70;;;;;;5007874;28;20088;-72
2022/06/20 12:32:42;;;;;;;0.60;0.30;;;23.80;52.10;;;;;;4997314;28;20498;-74
2022/06/20 12:35:38;;;;;;;0.25;0.20;;;23.70;52.20;;;;;;5016615;28;20123;-73
2022/06/20 12:38:05;;;;;;;1.85;0.28;;;23.60;52.20;;;;;;5003119;28;20044;-73
2022/06/20 12:40:44;;;;;;;0.15;0.15;;;23.40;52.30;;;;;;5017703;28;20109;-74
2022/06/20 12:43:18;;;;;;;2.47;0.40;;;23.30;52.40;;;;;;5007967;28;20061;-74
2022/06/20 12:45:52;;;;;;;0.50;0.30;;;23.30;52.40;;;;;;5004865;28;20042;-73
2022/06/20 12:48:27;;;;;;;1.38;0.38;;;23.30;52.40;;;;;;5025991;28;20025;-73
2022/06/20 12:51:25;;;;;;;0.20;0.20;;;23.30;52.20;;;;;;5012738;28;20073;-74
2022/06/20 12:54:38;;;;;;;0.20;0.20;;;23.30;52.20;;;;;;5020348;28;20609;-73
2022/06/20 12:57:04;;;;;;;0.98;0.30;;;23.40;52.00;;;;;;5004289;28;20454;-72
2022/06/20 13:00:18;;;;;;;1.10;0.28;;;23.30;51.90;;;;;;5009070;28;20037;-73
2022/06/20 13:02:55;;;;;;;4.20;0.30;;;23.20;52.00;;;;;;4968877;28;20038;-73
2022/06/20 13:05:39;;;;;;;0.65;0.22;;;23.10;52.30;;;;;;5018182;28;20162;-73
2022/06/20 13:08:25;;;;;;;0.50;0.30;;;22.90;52.40;;;;;;4999532;28;20075;-73
2022/06/20 13:11:16;;;;;;;1.73;0.38;;;23.00;52.50;;;;;;5020522;28;20087;-72
2022/06/20 13:13:53;;;;;;;0.20;0.20;;;23.20;52.90;;;;;;5021495;28;20117;-72
2022/06/20 13:16:32;;;;;;;0.77;0.30;;;23.40;52.20;;;;;;5033750;28;20108;-73
2022/06/20 13:19:21;;;;;;;2.03;0.40;;;23.60;52.00;;;;;;5018241;28;20483;-73
2022/06/20 13:21:59;;;;;;;0.98;0.30;;;23.80;51.40;;;;;;4967288;28;21224;-73
2022/06/20 13:24:43;;;;;;;1.90;0.20;;;23.70;52.00;;;;;;4999342;28;20255;-72
2022/06/20 13:27:16;;;;;;;2.10;0.60;;;23.60;51.10;;;;;;5001039;28;20034;-74
2022/06/20 13:29:54;;;;;;;0.52;0.30;;;23.50;51.40;;;;;;5011380;28;20069;-73
2022/06/20 13:32:35;;;;;;;0.63;0.30;;;23.40;51.60;;;;;;5026369;28;20040;-74
2022/06/20 13:35:27;;;;;;;3.90;0.32;;;23.50;51.20;;;;;;5014396;28;20489;-74
2022/06/20 13:38:14;;;;;;;2.58;0.40;;;23.50;50.90;;;;;;5013376;28;20045;-73
2022/06/20 13:41:02;;;;;;;0.20;0.10;;;23.60;51.00;;;;;;5003332;28;20093;-69